createdAt,value
2017-05-08T00:00:04.843Z,927.1
2017-05-08T00:00:33.224Z,927.12
2017-05-08T00:01:01.441Z,927.1
2017-05-08T00:01:29.834Z,927.11
2017-05-08T00:01:58.172Z,927.12
2017-05-08T00:02:26.420Z,927.08
2017-05-08T00:02:54.694Z,927.12
2017-05-08T00:04:06.163Z,927.1
2017-05-08T00:04:34.553Z,927.08
2017-05-08T00:05:02.876Z,927.09
2017-05-08T00:05:31.232Z,927.08
2017-05-08T00:05:59.558Z,927.09
2017-05-08T00:06:27.756Z,927.07
2017-05-08T00:06:56.155Z,927.05
2017-05-08T00:07:24.547Z,927.1
2017-05-08T00:07:52.885Z,927.07
2017-05-08T00:08:21.135Z,927.08
2017-05-08T00:08:49.418Z,927.1
2017-05-08T00:10:00.889Z,927.1
2017-05-08T00:10:29.092Z,927.06
2017-05-08T00:10:57.501Z,927.09
2017-05-08T00:11:25.765Z,927.1
2017-05-08T00:11:54.189Z,927.12
2017-05-08T00:12:22.482Z,927.09
2017-05-08T00:12:50.790Z,927.11
2017-05-08T00:13:19.085Z,927.1
2017-05-08T00:13:47.520Z,927.13
2017-05-08T00:14:15.868Z,927.11
2017-05-08T00:14:44.235Z,927.1
2017-05-08T00:15:55.714Z,927.15
2017-05-08T00:16:24.105Z,927.15
2017-05-08T00:16:52.424Z,927.17
2017-05-08T00:17:20.600Z,927.11
2017-05-08T00:17:48.934Z,927.13
2017-05-08T00:18:17.133Z,927.13
2017-05-08T00:18:45.443Z,927.12
2017-05-08T00:19:13.836Z,927.09
2017-05-08T00:19:42.174Z,927.09
2017-05-08T00:20:10.514Z,927.08
2017-05-08T00:20:38.786Z,927.13
2017-05-08T00:21:50.261Z,927.09
2017-05-08T00:22:18.558Z,927.14
2017-05-08T00:22:46.970Z,927.07
2017-05-08T00:23:15.140Z,927.09
2017-05-08T00:23:43.470Z,927.1
2017-05-08T00:24:11.762Z,927.12
2017-05-08T00:24:40.164Z,927.11
2017-05-08T00:25:08.554Z,927.08
2017-05-08T00:25:36.986Z,927.09
2017-05-08T00:26:05.320Z,927.1
2017-05-08T00:26:33.594Z,927.06
2017-05-08T00:27:44.982Z,927.09
2017-05-08T00:28:13.373Z,927.07
2017-05-08T00:28:41.787Z,927.04
2017-05-08T00:29:10.060Z,927.07
2017-05-08T00:29:38.388Z,927.01
2017-05-08T00:30:06.772Z,927.03
2017-05-08T00:30:35.170Z,927.04
2017-05-08T00:31:03.562Z,927.03
2017-05-08T00:31:31.991Z,927.03
2017-05-08T00:32:00.332Z,927.07
2017-05-08T00:32:28.697Z,927.05
2017-05-08T00:33:40.084Z,927.01
2017-05-08T00:34:08.475Z,927.08
2017-05-08T00:34:36.704Z,927.01
2017-05-08T00:35:05.058Z,927.03
2017-05-08T00:35:33.480Z,927.05
2017-05-08T00:36:01.865Z,927.01
2017-05-08T00:36:30.264Z,927.06
2017-05-08T00:36:58.660Z,927.03
2017-05-08T00:37:27.096Z,927.05
2017-05-08T00:37:55.440Z,927.03
2017-05-08T00:38:23.712Z,927.02
2017-05-08T00:39:35.101Z,927.04
2017-05-08T00:40:03.397Z,927.08
2017-05-08T00:40:31.814Z,927.05
2017-05-08T00:41:00.179Z,927.07
2017-05-08T00:41:28.600Z,927.02
2017-05-08T00:41:56.897Z,927.06
2017-05-08T00:42:25.298Z,927.06
2017-05-08T00:42:53.693Z,927.06
2017-05-08T00:43:22.124Z,927.1
2017-05-08T00:43:50.458Z,927.06
2017-05-08T00:44:18.640Z,927.05
2017-05-08T00:45:30.033Z,927.05
2017-05-08T00:45:58.425Z,927.06
2017-05-08T00:46:26.845Z,927.03
2017-05-08T00:46:55.022Z,927.01
2017-05-08T00:47:23.348Z,927.05
2017-05-08T00:47:51.731Z,927.05
2017-05-08T00:48:20.126Z,927.04
2017-05-08T00:48:48.520Z,927.06
2017-05-08T00:49:16.853Z,927.09
2017-05-08T00:49:45.191Z,927.12
2017-05-08T00:50:13.463Z,927.12
2017-05-08T00:51:24.943Z,927.12
2017-05-08T00:51:53.329Z,927.11
2017-05-08T00:52:21.650Z,927.1
2017-05-08T00:52:49.913Z,927.08
2017-05-08T00:53:18.239Z,927.1
2017-05-08T00:53:46.621Z,927.09
2017-05-08T00:54:14.933Z,927.07
2017-05-08T00:54:43.323Z,927.09
2017-05-08T00:55:11.754Z,927.09
2017-05-08T00:55:40.087Z,927.07
2017-05-08T00:56:08.459Z,927.11
2017-05-08T00:57:19.935Z,927.09
2017-05-08T00:57:48.322Z,927.08
2017-05-08T00:58:16.735Z,927.1
2017-05-08T00:58:45.134Z,927.09
2017-05-08T00:59:13.423Z,927.14
2017-05-08T00:59:41.622Z,927.09
2017-05-08T01:00:09.928Z,927.11
2017-05-08T01:00:38.135Z,927.08
2017-05-08T01:01:06.376Z,927.03
2017-05-08T01:01:34.645Z,927.07
2017-05-08T01:02:02.895Z,927.07
2017-05-08T01:03:14.375Z,927.07
2017-05-08T01:03:42.671Z,927.08
2017-05-08T01:04:11.101Z,927.1
2017-05-08T01:04:39.351Z,927.07
2017-05-08T01:05:07.590Z,927.13
2017-05-08T01:05:35.971Z,927.12
2017-05-08T01:06:04.373Z,927.11
2017-05-08T01:06:32.765Z,927.11
2017-05-08T01:07:01.192Z,927.09
2017-05-08T01:07:29.527Z,927.14
2017-05-08T01:07:57.799Z,927.12
2017-05-08T01:09:09.183Z,927.13
2017-05-08T01:09:37.478Z,927.06
2017-05-08T01:10:05.896Z,927.08
2017-05-08T01:10:34.256Z,927.08
2017-05-08T01:11:02.676Z,927.08
2017-05-08T01:11:30.881Z,927.08
2017-05-08T01:11:59.277Z,927.11
2017-05-08T01:12:27.667Z,927.1
2017-05-08T01:12:56.100Z,927.1
2017-05-08T01:13:24.350Z,927.1
2017-05-08T01:13:52.723Z,927.09
2017-05-08T01:15:04.194Z,927.11
2017-05-08T01:15:32.491Z,927.06
2017-05-08T01:16:00.811Z,927.06
2017-05-08T01:16:29.173Z,927.07
2017-05-08T01:16:57.501Z,927.04
2017-05-08T01:17:25.793Z,927.08
2017-05-08T01:17:54.011Z,927.06
2017-05-08T01:18:22.313Z,927.07
2017-05-08T01:18:50.744Z,927.06
2017-05-08T01:19:19.084Z,927.02
2017-05-08T01:19:47.360Z,927.06
2017-05-08T01:20:58.741Z,927.08
2017-05-08T01:21:27.035Z,927.04
2017-05-08T01:21:55.452Z,927.02
2017-05-08T01:22:23.726Z,927.02
2017-05-08T01:22:52.146Z,927.04
2017-05-08T01:23:20.438Z,927.09
2017-05-08T01:23:48.840Z,927.07
2017-05-08T01:24:17.342Z,927.06
2017-05-08T01:24:45.689Z,927
2017-05-08T01:25:14.021Z,927.11
2017-05-08T01:25:42.387Z,927.07
2017-05-08T01:26:53.782Z,927.06
2017-05-08T01:27:21.980Z,927.05
2017-05-08T01:27:50.400Z,927.03
2017-05-08T01:28:18.759Z,927
2017-05-08T01:28:47.193Z,927
2017-05-08T01:29:15.485Z,927.03
2017-05-08T01:29:43.696Z,927
2017-05-08T01:30:11.994Z,927
2017-05-08T01:30:40.419Z,926.99
2017-05-08T01:31:08.749Z,927
2017-05-08T01:31:36.935Z,926.99
2017-05-08T01:32:48.423Z,926.97
2017-05-08T01:33:16.716Z,926.95
2017-05-08T01:33:45.132Z,927
2017-05-08T01:34:13.496Z,926.98
2017-05-08T01:34:41.820Z,926.92
2017-05-08T01:35:10.111Z,926.99
2017-05-08T01:35:38.509Z,926.98
2017-05-08T01:36:06.900Z,926.97
2017-05-08T01:36:35.233Z,926.95
2017-05-08T01:37:03.572Z,926.96
2017-05-08T01:37:31.942Z,926.95
2017-05-08T01:38:43.332Z,926.94
2017-05-08T01:39:11.717Z,926.97
2017-05-08T01:39:40.041Z,926.95
2017-05-08T01:40:08.392Z,926.91
2017-05-08T01:40:36.725Z,926.92
2017-05-08T01:41:05.010Z,926.92
2017-05-08T01:41:33.318Z,926.93
2017-05-08T01:42:01.617Z,926.89
2017-05-08T01:42:29.957Z,926.9
2017-05-08T01:42:58.297Z,926.92
2017-05-08T01:43:26.571Z,926.9
2017-05-08T01:44:37.773Z,926.89
2017-05-08T01:45:06.075Z,926.93
2017-05-08T01:45:34.486Z,926.87
2017-05-08T01:46:02.848Z,926.87
2017-05-08T01:46:31.089Z,926.87
2017-05-08T01:46:59.378Z,926.9
2017-05-08T01:47:27.596Z,926.87
2017-05-08T01:47:55.987Z,926.88
2017-05-08T01:48:24.330Z,926.89
2017-05-08T01:48:52.665Z,926.84
2017-05-08T01:49:20.940Z,926.85
2017-05-08T01:50:32.411Z,926.89
2017-05-08T01:51:00.802Z,926.79
2017-05-08T01:51:29.032Z,926.8
2017-05-08T01:51:57.301Z,926.79
2017-05-08T01:52:25.628Z,926.75
2017-05-08T01:52:54.010Z,926.81
2017-05-08T01:53:22.233Z,926.77
2017-05-08T01:53:50.624Z,926.77
2017-05-08T01:54:19.056Z,926.75
2017-05-08T01:54:47.386Z,926.76
2017-05-08T01:55:15.657Z,926.74
2017-05-08T01:56:27.132Z,926.75
2017-05-08T01:56:55.425Z,926.76
2017-05-08T01:57:23.842Z,926.71
2017-05-08T01:57:52.106Z,926.71
2017-05-08T01:58:20.439Z,926.69
2017-05-08T01:58:48.821Z,926.7
2017-05-08T01:59:17.131Z,926.69
2017-05-08T01:59:45.523Z,926.65
2017-05-08T02:00:13.856Z,926.67
2017-05-08T02:00:42.194Z,926.67
2017-05-08T02:01:10.559Z,926.67
2017-05-08T02:02:21.943Z,926.65
2017-05-08T02:02:50.337Z,926.64
2017-05-08T02:03:18.747Z,926.62
2017-05-08T02:03:47.010Z,926.69
2017-05-08T02:04:15.342Z,926.65
2017-05-08T02:04:43.629Z,926.65
2017-05-08T02:05:11.844Z,926.61
2017-05-08T02:05:40.144Z,926.65
2017-05-08T02:06:08.383Z,926.62
2017-05-08T02:06:36.713Z,926.61
2017-05-08T02:07:04.980Z,926.61
2017-05-08T02:08:16.365Z,926.6
2017-05-08T02:08:44.666Z,926.57
2017-05-08T02:09:13.120Z,926.57
2017-05-08T02:09:41.351Z,926.6
2017-05-08T02:10:09.706Z,926.54
2017-05-08T02:10:37.999Z,926.62
2017-05-08T02:11:06.398Z,926.59
2017-05-08T02:11:34.790Z,926.55
2017-05-08T02:12:03.226Z,926.56
2017-05-08T02:12:31.560Z,926.56
2017-05-08T02:12:59.748Z,926.56
2017-05-08T02:14:11.231Z,926.57
2017-05-08T02:14:39.611Z,926.57
2017-05-08T02:15:07.927Z,926.59
2017-05-08T02:15:36.100Z,926.58
2017-05-08T02:16:04.429Z,926.54
2017-05-08T02:16:32.810Z,926.54
2017-05-08T02:17:01.212Z,926.57
2017-05-08T02:17:29.411Z,926.56
2017-05-08T02:17:57.844Z,926.55
2017-05-08T02:18:26.183Z,926.54
2017-05-08T02:18:54.553Z,926.56
2017-05-08T02:20:06.022Z,926.57
2017-05-08T02:20:34.353Z,926.53
2017-05-08T02:21:02.667Z,926.56
2017-05-08T02:21:30.935Z,926.57
2017-05-08T02:21:59.167Z,926.57
2017-05-08T02:22:27.458Z,926.59
2017-05-08T02:22:55.853Z,926.6
2017-05-08T02:23:24.152Z,926.59
2017-05-08T02:23:52.581Z,926.6
2017-05-08T02:24:20.913Z,926.56
2017-05-08T02:24:49.277Z,926.63
2017-05-08T02:26:00.655Z,926.62
2017-05-08T02:26:29.047Z,926.6
2017-05-08T02:26:57.460Z,926.57
2017-05-08T02:27:25.725Z,926.58
2017-05-08T02:27:54.152Z,926.6
2017-05-08T02:28:22.441Z,926.55
2017-05-08T02:28:50.843Z,926.59
2017-05-08T02:29:19.232Z,926.58
2017-05-08T02:29:47.666Z,926.61
2017-05-08T02:30:16.006Z,926.66
2017-05-08T02:30:44.291Z,926.6
2017-05-08T02:31:55.671Z,926.63
2017-05-08T02:32:23.879Z,926.59
2017-05-08T02:32:52.210Z,926.66
2017-05-08T02:33:20.470Z,926.66
2017-05-08T02:33:48.890Z,926.62
2017-05-08T02:34:17.271Z,926.63
2017-05-08T02:34:45.579Z,926.65
2017-05-08T02:35:13.969Z,926.66
2017-05-08T02:35:42.211Z,926.69
2017-05-08T02:36:10.547Z,926.63
2017-05-08T02:36:38.913Z,926.67
2017-05-08T02:37:50.394Z,926.66
2017-05-08T02:38:18.693Z,926.59
2017-05-08T02:38:47.106Z,926.66
2017-05-08T02:39:15.471Z,926.66
2017-05-08T02:39:43.803Z,926.65
2017-05-08T02:40:12.090Z,926.66
2017-05-08T02:40:40.492Z,926.64
2017-05-08T02:41:08.882Z,926.64
2017-05-08T02:41:37.224Z,926.64
2017-05-08T02:42:05.559Z,926.63
2017-05-08T02:42:33.929Z,926.62
2017-05-08T02:43:45.307Z,926.62
2017-05-08T02:44:13.623Z,926.61
2017-05-08T02:44:41.933Z,926.63
2017-05-08T02:45:10.112Z,926.59
2017-05-08T02:45:38.534Z,926.63
2017-05-08T02:46:06.918Z,926.6
2017-05-08T02:46:35.132Z,926.62
2017-05-08T02:47:03.428Z,926.61
2017-05-08T02:47:31.764Z,926.62
2017-05-08T02:48:00.107Z,926.63
2017-05-08T02:48:28.473Z,926.61
2017-05-08T02:49:39.849Z,926.64
2017-05-08T02:50:08.148Z,926.66
2017-05-08T02:50:36.471Z,926.62
2017-05-08T02:51:04.744Z,926.62
2017-05-08T02:51:33.071Z,926.62
2017-05-08T02:52:01.454Z,926.63
2017-05-08T02:52:29.667Z,926.64
2017-05-08T02:52:57.872Z,926.63
2017-05-08T02:53:26.297Z,926.66
2017-05-08T02:53:54.630Z,926.67
2017-05-08T02:54:22.995Z,926.65
2017-05-08T02:55:34.377Z,926.67
2017-05-08T02:56:02.671Z,926.63
2017-05-08T02:56:30.994Z,926.62
2017-05-08T02:56:59.260Z,926.62
2017-05-08T02:57:27.685Z,926.64
2017-05-08T02:57:56.068Z,926.57
2017-05-08T02:58:24.377Z,926.6
2017-05-08T02:58:52.769Z,926.58
2017-05-08T02:59:21.102Z,926.6
2017-05-08T02:59:49.437Z,926.58
2017-05-08T03:00:17.626Z,926.55
2017-05-08T03:01:29.101Z,926.55
2017-05-08T03:01:57.400Z,926.56
2017-05-08T03:02:25.813Z,926.58
2017-05-08T03:02:54.081Z,926.52
2017-05-08T03:03:22.411Z,926.53
2017-05-08T03:03:50.708Z,926.52
2017-05-08T03:04:19.110Z,926.54
2017-05-08T03:04:47.408Z,926.55
2017-05-08T03:05:15.739Z,926.52
2017-05-08T03:05:44.073Z,926.56
2017-05-08T03:06:12.436Z,926.52
2017-05-08T03:07:23.819Z,926.54
2017-05-08T03:07:52.207Z,926.53
2017-05-08T03:08:20.427Z,926.55
2017-05-08T03:08:48.788Z,926.53
2017-05-08T03:09:17.123Z,926.57
2017-05-08T03:09:45.512Z,926.55
2017-05-08T03:10:13.908Z,926.52
2017-05-08T03:10:42.298Z,926.55
2017-05-08T03:11:10.631Z,926.54
2017-05-08T03:11:38.963Z,926.5
2017-05-08T03:12:07.327Z,926.52
2017-05-08T03:13:18.801Z,926.48
2017-05-08T03:13:47.103Z,926.49
2017-05-08T03:14:15.512Z,926.51
2017-05-08T03:14:43.776Z,926.51
2017-05-08T03:15:12.203Z,926.5
2017-05-08T03:15:40.589Z,926.47
2017-05-08T03:16:08.986Z,926.51
2017-05-08T03:16:37.376Z,926.49
2017-05-08T03:17:05.808Z,926.51
2017-05-08T03:17:34.147Z,926.49
2017-05-08T03:18:02.517Z,926.52
2017-05-08T03:19:13.990Z,926.52
2017-05-08T03:19:42.287Z,926.51
2017-05-08T03:20:10.513Z,926.48
2017-05-08T03:20:38.874Z,926.44
2017-05-08T03:21:07.202Z,926.42
2017-05-08T03:21:35.400Z,926.4
2017-05-08T03:22:03.708Z,926.42
2017-05-08T03:22:32.102Z,926.39
2017-05-08T03:23:00.540Z,926.36
2017-05-08T03:23:28.878Z,926.39
2017-05-08T03:23:57.158Z,926.4
2017-05-08T03:25:08.541Z,926.36
2017-05-08T03:25:36.930Z,926.34
2017-05-08T03:26:05.250Z,926.33
2017-05-08T03:26:33.512Z,926.3
2017-05-08T03:27:01.655Z,926.3
2017-05-08T03:27:30.035Z,926.31
2017-05-08T03:27:58.341Z,926.29
2017-05-08T03:28:26.734Z,926.31
2017-05-08T03:28:55.069Z,926.3
2017-05-08T03:29:23.309Z,926.29
2017-05-08T03:29:51.587Z,926.31
2017-05-08T03:31:02.977Z,926.29
2017-05-08T03:31:31.368Z,926.25
2017-05-08T03:31:59.783Z,926.23
2017-05-08T03:32:28.148Z,926.25
2017-05-08T03:32:56.479Z,926.25
2017-05-08T03:33:24.863Z,926.26
2017-05-08T03:33:53.261Z,926.27
2017-05-08T03:34:21.652Z,926.26
2017-05-08T03:34:50.432Z,926.26
2017-05-08T03:35:18.768Z,926.25
2017-05-08T03:35:47.043Z,926.2
2017-05-08T03:36:58.425Z,926.21
2017-05-08T03:37:26.623Z,926.21
2017-05-08T03:37:54.948Z,926.16
2017-05-08T03:38:23.122Z,926.19
2017-05-08T03:38:51.360Z,926.16
2017-05-08T03:39:19.654Z,926.19
2017-05-08T03:39:48.047Z,926.19
2017-05-08T03:40:16.257Z,926.16
2017-05-08T03:40:44.682Z,926.18
2017-05-08T03:41:13.017Z,926.16
2017-05-08T03:41:41.205Z,926.21
2017-05-08T03:42:52.679Z,926.14
2017-05-08T03:43:20.974Z,926.08
2017-05-08T03:43:49.387Z,926.1
2017-05-08T03:44:17.648Z,926.09
2017-05-08T03:44:45.982Z,926.12
2017-05-08T03:45:14.271Z,926.13
2017-05-08T03:45:42.580Z,926.06
2017-05-08T03:46:10.874Z,926.07
2017-05-08T03:46:39.214Z,926.06
2017-05-08T03:47:07.554Z,926.04
2017-05-08T03:47:35.734Z,926.08
2017-05-08T03:48:47.214Z,926.06
2017-05-08T03:49:15.520Z,926.01
2017-05-08T03:49:43.840Z,926.05
2017-05-08T03:50:12.105Z,926.01
2017-05-08T03:50:40.334Z,925.98
2017-05-08T03:51:08.627Z,925.98
2017-05-08T03:51:36.847Z,926.02
2017-05-08T03:52:05.146Z,925.98
2017-05-08T03:52:33.581Z,926
2017-05-08T03:53:01.922Z,925.96
2017-05-08T03:53:30.290Z,926
2017-05-08T03:54:41.673Z,926.02
2017-05-08T03:55:10.060Z,925.96
2017-05-08T03:55:38.469Z,925.99
2017-05-08T03:56:06.830Z,925.98
2017-05-08T03:56:35.252Z,926.03
2017-05-08T03:57:03.635Z,926
2017-05-08T03:57:32.032Z,926
2017-05-08T03:58:00.331Z,925.99
2017-05-08T03:58:28.765Z,925.97
2017-05-08T03:58:57.109Z,925.99
2017-05-08T03:59:25.484Z,926
2017-05-08T04:00:36.855Z,925.97
2017-05-08T04:01:05.151Z,925.96
2017-05-08T04:01:33.380Z,925.93
2017-05-08T04:02:01.649Z,925.92
2017-05-08T04:02:29.975Z,925.89
2017-05-08T04:02:58.087Z,925.91
2017-05-08T04:03:26.483Z,925.9
2017-05-08T04:03:54.778Z,925.89
2017-05-08T04:04:23.211Z,925.88
2017-05-08T04:04:51.547Z,925.88
2017-05-08T04:05:19.824Z,925.91
2017-05-08T04:06:31.299Z,925.9
2017-05-08T04:06:59.595Z,925.89
2017-05-08T04:07:28.009Z,925.88
2017-05-08T04:07:56.289Z,925.89
2017-05-08T04:08:24.621Z,925.91
2017-05-08T04:08:53.003Z,925.9
2017-05-08T04:09:21.313Z,925.86
2017-05-08T04:09:49.613Z,925.91
2017-05-08T04:10:18.047Z,925.88
2017-05-08T04:10:46.385Z,925.83
2017-05-08T04:11:14.657Z,925.9
2017-05-08T04:12:25.947Z,925.84
2017-05-08T04:12:54.153Z,925.82
2017-05-08T04:13:22.566Z,925.82
2017-05-08T04:13:50.929Z,925.77
2017-05-08T04:14:19.350Z,925.79
2017-05-08T04:14:47.454Z,925.79
2017-05-08T04:15:15.767Z,925.77
2017-05-08T04:15:44.066Z,925.78
2017-05-08T04:16:12.499Z,925.72
2017-05-08T04:16:40.834Z,925.74
2017-05-08T04:17:09.013Z,925.75
2017-05-08T04:18:20.411Z,925.71
2017-05-08T04:18:48.713Z,925.71
2017-05-08T04:19:17.128Z,925.67
2017-05-08T04:19:45.489Z,925.7
2017-05-08T04:20:13.846Z,925.69
2017-05-08T04:20:42.134Z,925.71
2017-05-08T04:21:10.563Z,925.72
2017-05-08T04:21:38.924Z,925.68
2017-05-08T04:22:07.349Z,925.69
2017-05-08T04:22:35.683Z,925.67
2017-05-08T04:23:03.865Z,925.6
2017-05-08T04:24:15.340Z,925.59
2017-05-08T04:24:43.636Z,925.58
2017-05-08T04:25:11.954Z,925.55
2017-05-08T04:25:40.311Z,925.54
2017-05-08T04:26:08.548Z,925.52
2017-05-08T04:26:36.936Z,925.48
2017-05-08T04:27:05.243Z,925.49
2017-05-08T04:27:33.542Z,925.51
2017-05-08T04:28:01.881Z,925.49
2017-05-08T04:28:30.223Z,925.46
2017-05-08T04:28:58.586Z,925.45
2017-05-08T04:30:09.871Z,925.46
2017-05-08T04:30:38.268Z,925.45
2017-05-08T04:31:06.588Z,925.44
2017-05-08T04:31:34.941Z,925.44
2017-05-08T04:32:03.275Z,925.47
2017-05-08T04:32:31.567Z,925.42
2017-05-08T04:32:59.966Z,925.49
2017-05-08T04:33:28.358Z,925.46
2017-05-08T04:33:56.783Z,925.45
2017-05-08T04:34:25.116Z,925.49
2017-05-08T04:34:53.390Z,925.48
2017-05-08T04:36:04.771Z,925.47
2017-05-08T04:36:33.072Z,925.41
2017-05-08T04:37:01.484Z,925.45
2017-05-08T04:37:29.850Z,925.4
2017-05-08T04:37:58.267Z,925.41
2017-05-08T04:38:26.482Z,925.42
2017-05-08T04:38:54.880Z,925.39
2017-05-08T04:39:23.182Z,925.37
2017-05-08T04:39:51.610Z,925.4
2017-05-08T04:40:19.951Z,925.41
2017-05-08T04:40:48.319Z,925.41
2017-05-08T04:41:59.697Z,925.38
2017-05-08T04:42:28.089Z,925.41
2017-05-08T04:42:56.503Z,925.38
2017-05-08T04:43:24.772Z,925.38
2017-05-08T04:43:53.193Z,925.39
2017-05-08T04:44:21.487Z,925.37
2017-05-08T04:44:49.886Z,925.41
2017-05-08T04:45:18.183Z,925.39
2017-05-08T04:45:46.613Z,925.37
2017-05-08T04:46:14.854Z,925.39
2017-05-08T04:46:43.226Z,925.36
2017-05-08T04:47:54.704Z,925.37
2017-05-08T04:48:22.910Z,925.32
2017-05-08T04:48:51.143Z,925.36
2017-05-08T04:49:19.221Z,925.33
2017-05-08T04:49:47.458Z,925.36
2017-05-08T04:50:15.753Z,925.36
2017-05-08T04:50:44.061Z,925.35
2017-05-08T04:51:12.261Z,925.32
2017-05-08T04:51:41.047Z,925.33
2017-05-08T04:52:09.383Z,925.35
2017-05-08T04:52:37.748Z,925.34
2017-05-08T04:53:49.037Z,925.34
2017-05-08T04:54:17.429Z,925.32
2017-05-08T04:54:45.841Z,925.33
2017-05-08T04:55:14.103Z,925.29
2017-05-08T04:55:42.432Z,925.3
2017-05-08T04:56:10.818Z,925.29
2017-05-08T04:56:39.214Z,925.33
2017-05-08T04:57:07.513Z,925.31
2017-05-08T04:57:35.942Z,925.32
2017-05-08T04:58:04.276Z,925.29
2017-05-08T04:58:32.641Z,925.29
2017-05-08T04:59:44.021Z,925.28
2017-05-08T05:00:12.317Z,925.28
2017-05-08T05:00:40.638Z,925.28
2017-05-08T05:01:08.995Z,925.27
2017-05-08T05:01:37.319Z,925.26
2017-05-08T05:02:05.520Z,925.28
2017-05-08T05:02:33.838Z,925.31
2017-05-08T05:03:02.131Z,925.28
2017-05-08T05:03:30.472Z,925.29
2017-05-08T05:03:58.813Z,925.28
2017-05-08T05:04:27.184Z,925.28
2017-05-08T05:05:38.653Z,925.29
2017-05-08T05:06:07.042Z,925.26
2017-05-08T05:06:35.447Z,925.27
2017-05-08T05:07:03.718Z,925.26
2017-05-08T05:07:32.138Z,925.31
2017-05-08T05:08:00.522Z,925.31
2017-05-08T05:08:28.832Z,925.28
2017-05-08T05:08:57.225Z,925.31
2017-05-08T05:09:25.655Z,925.25
2017-05-08T05:09:53.999Z,925.29
2017-05-08T05:10:22.361Z,925.26
2017-05-08T05:11:33.661Z,925.28
2017-05-08T05:12:01.956Z,925.25
2017-05-08T05:12:30.368Z,925.28
2017-05-08T05:12:58.637Z,925.25
2017-05-08T05:13:27.068Z,925.25
2017-05-08T05:13:55.449Z,925.2
2017-05-08T05:14:23.755Z,925.22
2017-05-08T05:14:52.148Z,925.19
2017-05-08T05:15:20.480Z,925.23
2017-05-08T05:15:48.731Z,925.22
2017-05-08T05:16:17.100Z,925.22
2017-05-08T05:17:28.580Z,925.23
2017-05-08T05:17:56.968Z,925.2
2017-05-08T05:18:25.376Z,925.22
2017-05-08T05:18:53.552Z,925.16
2017-05-08T05:19:21.887Z,925.22
2017-05-08T05:19:50.274Z,925.17
2017-05-08T05:20:18.578Z,925.15
2017-05-08T05:20:46.972Z,925.15
2017-05-08T05:21:15.208Z,925.15
2017-05-08T05:21:43.549Z,925.08
2017-05-08T05:22:11.908Z,925.1
2017-05-08T05:23:23.199Z,925.13
2017-05-08T05:23:51.589Z,925.1
2017-05-08T05:24:19.908Z,925.13
2017-05-08T05:24:48.090Z,925.14
2017-05-08T05:25:16.510Z,925.09
2017-05-08T05:25:44.891Z,925.1
2017-05-08T05:26:13.197Z,925.07
2017-05-08T05:26:41.495Z,925.08
2017-05-08T05:27:09.827Z,925.08
2017-05-08T05:27:38.163Z,925.06
2017-05-08T05:28:06.525Z,925.08
2017-05-08T05:29:17.998Z,925.09
2017-05-08T05:29:46.384Z,925.11
2017-05-08T05:30:14.800Z,925.12
2017-05-08T05:30:42.976Z,925.1
2017-05-08T05:31:11.403Z,925.06
2017-05-08T05:31:39.691Z,925.08
2017-05-08T05:32:07.901Z,925.07
2017-05-08T05:32:36.287Z,925.1
2017-05-08T05:33:04.714Z,925.03
2017-05-08T05:33:32.965Z,925.08
2017-05-08T05:34:01.326Z,925.1
2017-05-08T05:35:12.708Z,925.06
2017-05-08T05:35:41.092Z,925.07
2017-05-08T05:36:09.501Z,925.07
2017-05-08T05:36:37.579Z,925.07
2017-05-08T05:37:05.909Z,925.05
2017-05-08T05:37:34.196Z,925.07
2017-05-08T05:38:02.589Z,925.07
2017-05-08T05:38:30.982Z,925.07
2017-05-08T05:38:59.410Z,925.05
2017-05-08T05:39:27.657Z,925.06
2017-05-08T05:39:56.027Z,925.04
2017-05-08T05:41:07.423Z,925.03
2017-05-08T05:41:35.805Z,925.07
2017-05-08T05:42:04.126Z,925.01
2017-05-08T05:42:32.301Z,925.02
2017-05-08T05:43:00.722Z,925.05
2017-05-08T05:43:29.109Z,925.02
2017-05-08T05:43:57.501Z,925.01
2017-05-08T05:44:25.893Z,925.01
2017-05-08T05:44:54.130Z,925.03
2017-05-08T05:45:22.463Z,924.99
2017-05-08T05:45:50.739Z,925
2017-05-08T05:47:02.029Z,924.99
2017-05-08T05:47:30.422Z,924.93
2017-05-08T05:47:58.830Z,924.97
2017-05-08T05:48:27.100Z,924.97
2017-05-08T05:48:55.520Z,924.97
2017-05-08T05:49:23.902Z,925
2017-05-08T05:49:52.300Z,924.98
2017-05-08T05:50:20.692Z,924.98
2017-05-08T05:50:48.936Z,924.97
2017-05-08T05:51:17.272Z,924.98
2017-05-08T05:51:45.642Z,924.96
2017-05-08T05:52:57.122Z,924.95
2017-05-08T05:53:25.508Z,924.98
2017-05-08T05:53:53.822Z,924.94
2017-05-08T05:54:22.183Z,924.94
2017-05-08T05:54:50.510Z,924.95
2017-05-08T05:55:18.800Z,924.95
2017-05-08T05:55:47.106Z,924.95
2017-05-08T05:56:15.495Z,924.93
2017-05-08T05:56:43.833Z,924.9
2017-05-08T05:57:12.171Z,924.93
2017-05-08T05:57:40.533Z,924.94
2017-05-08T05:58:51.633Z,924.96
2017-05-08T05:59:20.019Z,924.91
2017-05-08T05:59:48.343Z,924.9
2017-05-08T06:00:16.613Z,924.88
2017-05-08T06:00:44.936Z,924.89
2017-05-08T06:01:13.221Z,924.85
2017-05-08T06:01:41.338Z,924.86
2017-05-08T06:02:09.732Z,924.86
2017-05-08T06:02:38.061Z,924.86
2017-05-08T06:03:06.311Z,924.89
2017-05-08T06:03:34.677Z,924.86
2017-05-08T06:04:46.066Z,924.84
2017-05-08T06:05:14.450Z,924.86
2017-05-08T06:05:42.768Z,924.88
2017-05-08T06:06:11.043Z,924.91
2017-05-08T06:06:39.460Z,924.89
2017-05-08T06:07:07.654Z,924.86
2017-05-08T06:07:35.959Z,924.86
2017-05-08T06:08:04.261Z,924.9
2017-05-08T06:08:32.686Z,924.86
2017-05-08T06:09:01.028Z,924.88
2017-05-08T06:09:29.393Z,924.9
2017-05-08T06:10:40.778Z,924.88
2017-05-08T06:11:09.162Z,924.83
2017-05-08T06:11:37.380Z,924.84
2017-05-08T06:12:05.650Z,924.85
2017-05-08T06:12:33.890Z,924.84
2017-05-08T06:13:02.269Z,924.86
2017-05-08T06:13:30.570Z,924.81
2017-05-08T06:13:58.877Z,924.85
2017-05-08T06:14:27.207Z,924.87
2017-05-08T06:14:55.542Z,924.81
2017-05-08T06:15:23.911Z,924.83
2017-05-08T06:16:35.298Z,924.81
2017-05-08T06:17:03.684Z,924.83
2017-05-08T06:17:32.104Z,924.84
2017-05-08T06:18:00.465Z,924.81
2017-05-08T06:18:28.886Z,924.82
2017-05-08T06:18:57.175Z,924.83
2017-05-08T06:19:25.567Z,924.82
2017-05-08T06:19:53.961Z,924.86
2017-05-08T06:20:22.300Z,924.83
2017-05-08T06:20:50.640Z,924.83
2017-05-08T06:21:19.006Z,924.83
2017-05-08T06:22:30.295Z,924.85
2017-05-08T06:22:58.500Z,924.88
2017-05-08T06:23:26.820Z,924.84
2017-05-08T06:23:55.095Z,924.85
2017-05-08T06:24:23.511Z,924.84
2017-05-08T06:24:51.891Z,924.87
2017-05-08T06:25:20.290Z,924.84
2017-05-08T06:25:48.677Z,924.8
2017-05-08T06:26:17.102Z,924.8
2017-05-08T06:26:45.350Z,924.84
2017-05-08T06:27:13.716Z,924.83
2017-05-08T06:28:25.010Z,924.85
2017-05-08T06:28:53.397Z,924.87
2017-05-08T06:29:21.803Z,924.84
2017-05-08T06:29:50.166Z,924.85
2017-05-08T06:30:18.586Z,924.89
2017-05-08T06:30:46.876Z,924.88
2017-05-08T06:31:15.269Z,924.91
2017-05-08T06:31:43.665Z,924.91
2017-05-08T06:32:12.091Z,924.92
2017-05-08T06:32:40.242Z,924.9
2017-05-08T06:33:08.608Z,924.93
2017-05-08T06:34:19.999Z,924.91
2017-05-08T06:34:48.294Z,924.9
2017-05-08T06:35:16.700Z,924.88
2017-05-08T06:35:44.971Z,924.88
2017-05-08T06:36:13.393Z,924.86
2017-05-08T06:36:41.774Z,924.84
2017-05-08T06:37:10.077Z,924.83
2017-05-08T06:37:38.464Z,924.84
2017-05-08T06:38:06.889Z,924.81
2017-05-08T06:38:35.226Z,924.8
2017-05-08T06:39:03.590Z,924.78
2017-05-08T06:40:15.061Z,924.81
2017-05-08T06:40:43.356Z,924.78
2017-05-08T06:41:11.672Z,924.77
2017-05-08T06:41:39.937Z,924.79
2017-05-08T06:42:08.174Z,924.77
2017-05-08T06:42:36.558Z,924.74
2017-05-08T06:43:04.888Z,924.78
2017-05-08T06:43:33.257Z,924.78